Terminal Aerodrome Forecast
Issued by NWS

Home | Current Version | Previous Version | Text Only | Print | Product List | Glossary On
Versions: 1 2 3 4 5 6 7 8 9 10 11 12 13 14 15 16 17 18 19 20 21 22 23 24
000
FTUS46 KOTX 211139
TAFPUW
TAF
KPUW 211139Z 2112/2212 15004KT P6SM SCT025 OVC035
     FM211900 24013G21KT P6SM VCSH SCT030 OVC050
     FM220300 18005KT P6SM SCT120 SCT200
     FM220800 13008KT P6SM BKN070 OVC180=

USA.gov is the U.S. government's official web portal to all federal, state and local government web resources and services.